首页
METAR-TAF:

METAR-TAF

机场 :

Benton Harbor, 密歇根州, 美国

纬度: 42-07-43N, 经度: 086-25-42W, 海拔: 196米

当前天气观测

该预报发布于42分钟前的04:53 UTC
静风
温度 23°C
湿度 94%
气压 1012 hPa
能見度: 16.1公里
少量云层高于3600英尺
少量云层高于10000英尺

METAR: KBEH 170453Z AUTO 00000KT 10SM FEW036 FEW100 23/22 A2987 RMK AO2 SLP109 T02330217 402830206

时间: 01:35 (05:35 UTC)


TAF: 丢失

超过4000个机场的气象观测和天气预报(METAR&TAF报告)。

可查询的气象台以黄色和红色小点在地图上表示。

将鼠标移到小点上方,可查看气象台名称。

然后点击查看天气观测和预报。

如需切换地图:点击带黑十字的绿色按钮放大地图;点击带横线的绿色按钮缩小地图;或者点击绿色箭头查看邻近地区的地图。


METAR-TAF: